createdAt,value
2019-01-13T00:02:01.243Z,95057.62
2019-01-13T00:04:30.423Z,95058.28
2019-01-13T00:06:59.626Z,95058.28
2019-01-13T00:09:28.811Z,95051.89
2019-01-13T00:11:58.014Z,95070.02
2019-01-13T00:14:27.205Z,95064.37
2019-01-13T00:16:56.401Z,95058.80
2019-01-13T00:19:25.704Z,95063.70
2019-01-13T00:21:54.917Z,95060.17
2019-01-13T00:24:24.093Z,95056.78
2019-01-13T00:26:53.300Z,95061.29
2019-01-13T00:29:22.484Z,95061.00
2019-01-13T00:31:52.017Z,95059.34
2019-01-13T00:34:21.525Z,95055.36
2019-01-13T00:36:51.328Z,95063.62
2019-01-13T00:39:20.507Z,95057.61
2019-01-13T00:41:49.701Z,95053.98
2019-01-13T00:44:19.230Z,95054.73
2019-01-13T00:46:48.438Z,95067.98
2019-01-13T00:49:17.612Z,95048.34
2019-01-13T00:51:46.819Z,95050.51
2019-01-13T00:54:15.993Z,95048.73
2019-01-13T00:56:45.194Z,95051.50
2019-01-13T00:59:14.367Z,95051.34
2019-01-13T01:01:43.573Z,95057.15
2019-01-13T01:04:12.771Z,95052.92
2019-01-13T01:06:41.973Z,95064.08
2019-01-13T01:09:50.566Z,95063.02
2019-01-13T01:12:38.972Z,95047.22
2019-01-13T01:15:09.705Z,95060.52
2019-01-13T01:17:58.170Z,95063.46
2019-01-13T01:20:27.346Z,95064.20
2019-01-13T01:22:56.565Z,95065.70
2019-01-13T01:25:25.736Z,95044.66
2019-01-13T01:27:54.950Z,95057.28
2019-01-13T01:30:24.120Z,95053.88
2019-01-13T01:32:53.323Z,95054.63
2019-01-13T01:35:22.498Z,95062.91
2019-01-13T01:37:51.697Z,95038.06
2019-01-13T01:40:21.580Z,95048.09
2019-01-13T01:42:50.779Z,95057.58
2019-01-13T01:45:21.279Z,95068.66
2019-01-13T01:47:50.482Z,95056.41
2019-01-13T01:50:19.663Z,95060.45
2019-01-13T01:52:48.868Z,95066.32
2019-01-13T01:55:19.403Z,95052.56
2019-01-13T01:58:27.987Z,95049.48
2019-01-13T02:00:57.178Z,95054.81
2019-01-13T02:03:26.403Z,95045.46
2019-01-13T02:05:55.592Z,95060.76
2019-01-13T02:08:24.827Z,95060.76
2019-01-13T02:10:53.957Z,95053.65
2019-01-13T02:13:23.130Z,95037.11
2019-01-13T02:15:52.336Z,95039.97
2019-01-13T02:18:21.527Z,95065.11
2019-01-13T02:20:50.716Z,95059.99
2019-01-13T02:23:19.895Z,95051.78
2019-01-13T02:25:49.100Z,95058.48
2019-01-13T02:28:18.274Z,95066.61
2019-01-13T02:30:49.291Z,95050.80
2019-01-13T02:33:18.377Z,95070.36
2019-01-13T02:35:47.559Z,95049.52
2019-01-13T02:38:16.774Z,95064.10
2019-01-13T02:40:45.947Z,95060.41
2019-01-13T02:43:15.129Z,95041.66
2019-01-13T02:45:44.688Z,95061.25
2019-01-13T02:48:13.908Z,95055.95
2019-01-13T02:50:43.129Z,95049.29
2019-01-13T02:53:12.299Z,95059.97
2019-01-13T02:55:41.494Z,95061.91
2019-01-13T02:58:10.671Z,95055.83
2019-01-13T03:00:39.845Z,95064.05
2019-01-13T03:03:09.078Z,95052.34
2019-01-13T03:05:38.249Z,95047.47
2019-01-13T03:08:07.457Z,95059.20
2019-01-13T03:10:36.631Z,95047.69
2019-01-13T03:13:05.824Z,95039.02
2019-01-13T03:15:35.002Z,95045.19
2019-01-13T03:18:04.335Z,95044.89
2019-01-13T03:20:33.514Z,95042.14
2019-01-13T03:23:02.678Z,95049.53
2019-01-13T03:25:31.870Z,95051.47
2019-01-13T03:28:01.050Z,95056.20
2019-01-13T03:30:30.244Z,95042.05
2019-01-13T03:32:59.426Z,95063.64
2019-01-13T03:35:28.594Z,95047.63
2019-01-13T03:37:57.791Z,95039.64
2019-01-13T03:40:27.066Z,95047.12
2019-01-13T03:42:56.361Z,95045.69
2019-01-13T03:46:04.958Z,95042.00
2019-01-13T03:48:34.136Z,95049.53
2019-01-13T03:51:03.372Z,95040.84
2019-01-13T03:53:32.544Z,95048.69
2019-01-13T03:56:08.676Z,95040.63
2019-01-13T03:58:37.842Z,95048.74
2019-01-13T04:01:07.022Z,95045.95
2019-01-13T04:03:36.642Z,95040.00
2019-01-13T04:06:45.218Z,95045.87
2019-01-13T04:09:14.425Z,95048.28
2019-01-13T04:11:43.608Z,95045.30
2019-01-13T04:14:12.790Z,95045.59
2019-01-13T04:17:21.378Z,95043.00
2019-01-13T04:19:50.555Z,95048.22
2019-01-13T04:22:19.757Z,95035.71
2019-01-13T04:24:48.930Z,95040.20
2019-01-13T04:27:18.121Z,95041.48
2019-01-13T04:29:47.299Z,95037.55
2019-01-13T04:32:16.475Z,95040.50
2019-01-13T04:34:45.698Z,95047.55
2019-01-13T04:37:14.887Z,95049.02
2019-01-13T04:39:44.074Z,95039.03
2019-01-13T04:42:13.282Z,95027.98
2019-01-13T04:44:42.480Z,95028.05
2019-01-13T04:47:11.692Z,95021.05
2019-01-13T04:49:40.869Z,95041.69
2019-01-13T04:52:10.048Z,95037.36
2019-01-13T04:54:39.241Z,95037.80
2019-01-13T04:57:08.414Z,95045.58
2019-01-13T04:59:37.634Z,95030.45
2019-01-13T05:02:06.809Z,95032.68
2019-01-13T05:04:36.018Z,95032.77
2019-01-13T05:07:05.244Z,95038.39
2019-01-13T05:09:34.415Z,95037.90
2019-01-13T05:12:03.647Z,95032.33
2019-01-13T05:14:32.799Z,95031.29
2019-01-13T05:17:01.978Z,95030.45
2019-01-13T05:19:31.180Z,95032.87
2019-01-13T05:22:00.490Z,95036.08
2019-01-13T05:24:29.695Z,95035.25
2019-01-13T05:26:58.870Z,95042.48
2019-01-13T05:29:28.037Z,95055.73
2019-01-13T05:31:57.229Z,95032.77
2019-01-13T05:34:26.416Z,95033.22
2019-01-13T05:36:55.615Z,95032.14
2019-01-13T05:39:24.798Z,95033.81
2019-01-13T05:41:53.984Z,95040.06
2019-01-13T05:44:23.189Z,95033.91
2019-01-13T05:46:52.460Z,95036.96
2019-01-13T05:49:21.589Z,95026.72
2019-01-13T05:51:50.770Z,95036.42
2019-01-13T05:54:19.963Z,95038.35
2019-01-13T05:56:49.148Z,95032.39
2019-01-13T05:59:18.341Z,95038.98
2019-01-13T06:01:49.379Z,95046.03
2019-01-13T06:04:18.462Z,95034.80
2019-01-13T06:06:48.013Z,95033.92
2019-01-13T06:09:17.197Z,95044.46
2019-01-13T06:11:46.689Z,95048.98
2019-01-13T06:14:15.865Z,95040.31
2019-01-13T06:16:45.073Z,95053.19
2019-01-13T06:19:14.245Z,95041.30
2019-01-13T06:21:43.441Z,95043.03
2019-01-13T06:24:12.631Z,95043.38
2019-01-13T06:26:41.817Z,95046.63
2019-01-13T06:29:11.022Z,95042.14
2019-01-13T06:31:40.197Z,95039.29
2019-01-13T06:34:09.698Z,95033.61
2019-01-13T06:36:38.893Z,95040.76
2019-01-13T06:39:08.869Z,95045.59
2019-01-13T06:41:38.449Z,95036.73
2019-01-13T06:44:07.621Z,95033.36
2019-01-13T06:46:37.138Z,95022.88
2019-01-13T06:49:06.484Z,95024.55
2019-01-13T06:51:35.686Z,95022.73
2019-01-13T06:54:04.964Z,95026.58
2019-01-13T06:56:34.166Z,95037.45
2019-01-13T06:59:03.339Z,95027.76
2019-01-13T07:01:32.532Z,95027.22
2019-01-13T07:04:02.122Z,95026.86
2019-01-13T07:06:31.329Z,95028.34
2019-01-13T07:09:00.525Z,95031.00
2019-01-13T07:11:48.623Z,95032.09
2019-01-13T07:14:17.824Z,95034.12
2019-01-13T07:16:47.013Z,95018.48
2019-01-13T07:19:16.219Z,95014.39
2019-01-13T07:21:45.399Z,95022.08
2019-01-13T07:24:14.571Z,95024.05
2019-01-13T07:26:43.766Z,95022.88
2019-01-13T07:29:12.946Z,95018.00
2019-01-13T07:31:42.143Z,95016.81
2019-01-13T07:34:11.320Z,95024.70
2019-01-13T07:36:40.535Z,95020.11
2019-01-13T07:39:10.445Z,95004.20
2019-01-13T07:41:39.634Z,95003.65
2019-01-13T07:44:08.847Z,95006.62
2019-01-13T07:46:38.036Z,95005.09
2019-01-13T07:49:07.237Z,95003.06
2019-01-13T07:51:36.415Z,95000.45
2019-01-13T07:54:05.639Z,94997.24
2019-01-13T07:56:34.819Z,95002.91
2019-01-13T07:59:04.006Z,94995.23
2019-01-13T08:01:33.203Z,94995.33
2019-01-13T08:04:02.412Z,95000.55
2019-01-13T08:06:32.035Z,94985.42
2019-01-13T08:09:01.216Z,94994.63
2019-01-13T08:11:30.726Z,94999.11
2019-01-13T08:14:00.234Z,94997.00
2019-01-13T08:16:29.411Z,94994.98
2019-01-13T08:18:58.753Z,94986.68
2019-01-13T08:21:27.919Z,94991.58
2019-01-13T08:23:57.111Z,94996.00
2019-01-13T08:26:26.284Z,94991.33
2019-01-13T08:28:55.497Z,94971.30
2019-01-13T08:31:24.674Z,94987.06
2019-01-13T08:33:53.838Z,94986.91
2019-01-13T08:36:23.047Z,94988.70
2019-01-13T08:38:52.252Z,94984.28
2019-01-13T08:41:21.459Z,94993.06
2019-01-13T08:43:50.638Z,94989.95
2019-01-13T08:46:38.917Z,94975.23
2019-01-13T08:49:08.088Z,94977.53
2019-01-13T08:51:37.299Z,94957.05
2019-01-13T08:54:06.515Z,94962.09
2019-01-13T08:56:35.710Z,94966.12
2019-01-13T08:59:04.910Z,94963.18
2019-01-13T09:01:34.119Z,94960.06
2019-01-13T09:04:03.285Z,94972.89
2019-01-13T09:06:32.478Z,94967.21
2019-01-13T09:09:02.037Z,94969.59
2019-01-13T09:11:31.209Z,94956.95
2019-01-13T09:14:00.423Z,94965.39
2019-01-13T09:16:29.616Z,94971.26
2019-01-13T09:18:58.818Z,94976.73
2019-01-13T09:21:27.989Z,94973.09
2019-01-13T09:23:57.194Z,94980.25
2019-01-13T09:26:26.471Z,94977.30
2019-01-13T09:28:56.054Z,94976.86
2019-01-13T09:31:25.362Z,94978.77
2019-01-13T09:33:55.068Z,94968.70
2019-01-13T09:36:24.249Z,94971.73
2019-01-13T09:38:53.494Z,94968.89
2019-01-13T09:41:22.689Z,94958.08
2019-01-13T09:43:51.916Z,94950.56
2019-01-13T09:46:21.192Z,94956.80
2019-01-13T09:48:50.357Z,94953.41
2019-01-13T09:51:19.552Z,94939.85
2019-01-13T09:53:48.723Z,94937.84
2019-01-13T09:56:17.920Z,94911.36
2019-01-13T09:58:47.086Z,94901.09
2019-01-13T10:01:16.283Z,94900.27
2019-01-13T10:03:45.481Z,94904.11
2019-01-13T10:06:14.717Z,94896.03
2019-01-13T10:08:43.893Z,94896.77
2019-01-13T10:11:13.067Z,94892.56
2019-01-13T10:13:42.540Z,94883.75
2019-01-13T10:16:11.723Z,94873.31
2019-01-13T10:18:40.909Z,94874.88
2019-01-13T10:21:10.096Z,94870.82
2019-01-13T10:23:39.306Z,94872.10
2019-01-13T10:26:08.491Z,94861.11
2019-01-13T10:28:37.682Z,94861.31
2019-01-13T10:31:06.894Z,94845.44
2019-01-13T10:33:36.079Z,94850.50
2019-01-13T10:36:05.377Z,94840.41
2019-01-13T10:38:34.580Z,94839.40
2019-01-13T10:41:04.091Z,94823.89
2019-01-13T10:43:33.262Z,94811.35
2019-01-13T10:46:02.460Z,94817.19
2019-01-13T10:48:31.641Z,94816.58
2019-01-13T10:51:00.848Z,94811.56
2019-01-13T10:53:30.013Z,94808.38
2019-01-13T10:55:59.211Z,94807.37
2019-01-13T10:58:28.381Z,94807.44
2019-01-13T11:00:57.585Z,94810.94
2019-01-13T11:03:26.777Z,94781.82
2019-01-13T11:05:55.951Z,94796.74
2019-01-13T11:08:25.167Z,94791.24
2019-01-13T11:10:54.344Z,94798.48
2019-01-13T11:13:23.538Z,94797.20
2019-01-13T11:15:52.720Z,94782.47
2019-01-13T11:18:21.910Z,94786.13
2019-01-13T11:20:51.451Z,94776.16
2019-01-13T11:23:20.953Z,94770.84
2019-01-13T11:25:50.135Z,94762.50
2019-01-13T11:28:19.738Z,94754.72
2019-01-13T11:30:48.908Z,94738.70
2019-01-13T11:33:18.198Z,94726.16
2019-01-13T11:35:47.379Z,94729.17
2019-01-13T11:38:16.671Z,94718.58
2019-01-13T11:40:45.845Z,94719.68
2019-01-13T11:43:15.042Z,94713.44
2019-01-13T11:45:44.214Z,94710.43
2019-01-13T11:48:52.800Z,94703.19
2019-01-13T11:51:21.972Z,94709.86
2019-01-13T11:53:51.163Z,94699.55
2019-01-13T11:56:39.289Z,94707.11
2019-01-13T11:59:08.781Z,94682.15
2019-01-13T12:01:37.985Z,94676.66
2019-01-13T12:04:46.862Z,94661.03
2019-01-13T12:07:16.437Z,94661.20
2019-01-13T12:09:45.665Z,94656.54
2019-01-13T12:12:14.847Z,94640.63
2019-01-13T12:14:44.379Z,94649.31
2019-01-13T12:17:13.579Z,94637.89
2019-01-13T12:19:43.151Z,94622.42
2019-01-13T12:22:12.650Z,94608.70
2019-01-13T12:24:41.828Z,94610.16
2019-01-13T12:27:11.039Z,94596.18
2019-01-13T12:29:40.215Z,94599.12
2019-01-13T12:37:59.502Z,94559.98
2019-01-13T12:40:30.768Z,94546.08
2019-01-13T12:43:00.659Z,94558.87
2019-01-13T12:45:29.925Z,94558.22
2019-01-13T12:48:39.232Z,94546.08
2019-01-13T12:51:09.062Z,94540.85
2019-01-13T12:53:38.758Z,94546.42
2019-01-13T12:56:08.146Z,94536.11
2019-01-13T12:58:37.887Z,94532.79
2019-01-13T13:01:07.100Z,94527.49
2019-01-13T13:03:36.955Z,94536.56
2019-01-13T13:06:06.374Z,94514.23
2019-01-13T13:08:35.573Z,94527.83
2019-01-13T13:11:05.271Z,94499.70
2019-01-13T13:13:34.903Z,94501.61
2019-01-13T13:16:04.077Z,94514.52
2019-01-13T13:18:33.403Z,94491.81
2019-01-13T13:21:02.741Z,94488.97
2019-01-13T13:23:32.444Z,94481.30
2019-01-13T13:26:01.777Z,94478.27
2019-01-13T13:28:30.990Z,94480.00
2019-01-13T13:31:00.515Z,94484.58
2019-01-13T13:33:29.707Z,94470.26
2019-01-13T13:35:58.902Z,94462.36
2019-01-13T13:38:28.082Z,94475.33
2019-01-13T13:40:57.609Z,94464.76
2019-01-13T13:43:34.302Z,94442.20
2019-01-13T13:48:59.350Z,94446.77
2019-01-13T13:51:28.558Z,94443.00
2019-01-13T13:53:57.738Z,94441.83
2019-01-13T13:56:26.961Z,94436.33
2019-01-13T13:58:56.242Z,94436.60
2019-01-13T14:01:25.456Z,94427.02
2019-01-13T14:03:54.628Z,94427.95
2019-01-13T14:06:23.802Z,94429.05
2019-01-13T14:08:53.024Z,94437.47
2019-01-13T14:11:22.490Z,94430.71
2019-01-13T14:13:51.714Z,94427.19
2019-01-13T14:16:20.889Z,94421.61
2019-01-13T14:18:50.401Z,94436.13
2019-01-13T14:21:19.907Z,94438.96
2019-01-13T14:23:49.118Z,94419.34
2019-01-13T14:26:18.294Z,94413.20
2019-01-13T14:28:47.493Z,94400.89
2019-01-13T14:31:16.949Z,94399.31
2019-01-13T14:34:26.215Z,94405.53
2019-01-13T14:37:18.005Z,94385.56
2019-01-13T14:39:48.863Z,94360.50
2019-01-13T14:42:20.344Z,94369.81
2019-01-13T14:45:08.644Z,94360.39
2019-01-13T14:47:37.843Z,94364.84
2019-01-13T14:50:08.414Z,94341.20
2019-01-13T14:52:49.425Z,94352.73
2019-01-13T15:01:38.702Z,94314.35
2019-01-13T15:07:35.482Z,94304.36
2019-01-13T15:10:18.224Z,94277.62
2019-01-13T15:12:47.712Z,94282.29
2019-01-13T15:15:56.915Z,94268.70
2019-01-13T15:18:38.489Z,94296.94
2019-01-13T15:24:14.086Z,94278.61
2019-01-13T15:27:23.187Z,94279.44
2019-01-13T15:39:16.597Z,94253.66
2019-01-13T15:44:35.813Z,94239.50
2019-01-13T15:47:09.661Z,94234.25
2019-01-13T15:52:40.213Z,94216.91
2019-01-13T15:55:09.642Z,94227.05
2019-01-13T15:57:39.870Z,94211.16
2019-01-13T16:00:15.785Z,94206.08
2019-01-13T16:05:53.398Z,94211.78
2019-01-13T16:08:24.848Z,94211.88
2019-01-13T16:11:19.486Z,94213.77
2019-01-13T16:13:59.319Z,94195.03
2019-01-13T16:16:18.273Z,94197.73
2019-01-13T16:19:06.694Z,94200.30
2019-01-13T16:24:53.532Z,94177.91
2019-01-13T16:27:43.300Z,94185.41
2019-01-13T16:30:38.164Z,94187.19
2019-01-13T16:33:07.792Z,94187.40
2019-01-13T16:36:00.759Z,94177.63
2019-01-13T16:46:59.340Z,94172.90
2019-01-13T16:49:39.949Z,94168.44
2019-01-13T16:52:09.336Z,94144.29
2019-01-13T16:54:38.968Z,94153.16
2019-01-13T16:57:08.447Z,94120.52
2019-01-13T17:00:17.104Z,94099.48
2019-01-13T17:03:01.024Z,94139.43
2019-01-13T17:08:51.005Z,94123.66
2019-01-13T17:17:28.444Z,94120.62
2019-01-13T17:20:17.711Z,94126.25
2019-01-13T17:23:26.663Z,94119.02
2019-01-13T17:28:49.858Z,94142.23
2019-01-13T17:34:21.815Z,94131.86
2019-01-13T17:42:38.266Z,94089.84
2019-01-13T17:45:28.185Z,94062.75
2019-01-13T17:48:27.433Z,94084.36
2019-01-13T17:51:17.926Z,94102.67
2019-01-13T17:54:26.624Z,94089.83
2019-01-13T17:57:20.333Z,94047.45
2019-01-13T17:59:49.858Z,94091.12
2019-01-13T18:02:19.497Z,94076.07
2019-01-13T18:04:50.002Z,94087.28
2019-01-13T18:07:19.331Z,94057.73
2019-01-13T18:09:48.581Z,94076.75
2019-01-13T18:12:17.801Z,94085.41
2019-01-13T18:14:47.127Z,94062.27
2019-01-13T18:17:16.348Z,94071.85
2019-01-13T18:19:45.831Z,94063.33
2019-01-13T18:22:15.039Z,94047.33
2019-01-13T18:24:44.224Z,94072.66
2019-01-13T18:27:13.533Z,94067.88
2019-01-13T18:29:42.721Z,94058.77
2019-01-13T18:32:12.028Z,94065.30
2019-01-13T18:34:41.575Z,94072.55
2019-01-13T18:37:11.175Z,94059.59
2019-01-13T18:39:40.876Z,94080.71
2019-01-13T18:42:10.074Z,94033.31
2019-01-13T18:44:42.235Z,94052.22
2019-01-13T18:47:11.471Z,94045.09
2019-01-13T18:49:40.789Z,94045.69
2019-01-13T18:52:09.971Z,94049.08
2019-01-13T18:54:39.178Z,94064.25
2019-01-13T18:57:08.425Z,94050.80
2019-01-13T19:00:17.317Z,94064.48
2019-01-13T19:02:49.398Z,94028.63
2019-01-13T19:05:20.823Z,94039.38
2019-01-13T19:07:50.031Z,94033.05
2019-01-13T19:10:40.211Z,94004.89
2019-01-13T19:13:13.530Z,94023.00
2019-01-13T19:15:42.734Z,94021.59
2019-01-13T19:18:11.940Z,94024.16
2019-01-13T19:20:41.122Z,94012.93
2019-01-13T19:23:13.639Z,94022.52
2019-01-13T19:25:42.814Z,94009.56
2019-01-13T19:28:15.010Z,94026.40
2019-01-13T19:30:44.194Z,93988.17
2019-01-13T19:33:13.719Z,93987.25
2019-01-13T19:35:45.244Z,93971.70
2019-01-13T19:38:14.440Z,93982.12
2019-01-13T19:43:54.926Z,93955.95
2019-01-13T19:46:24.137Z,93964.72
2019-01-13T19:49:33.115Z,93961.78
2019-01-13T19:52:02.312Z,93963.07
2019-01-13T19:54:32.079Z,93960.50
2019-01-13T19:57:01.668Z,93971.14
2019-01-13T19:59:30.849Z,93958.89
2019-01-13T20:02:00.143Z,93972.56
2019-01-13T20:04:29.393Z,93943.47
2019-01-13T20:06:58.624Z,93955.49
2019-01-13T20:09:27.875Z,93951.64
2019-01-13T20:11:57.063Z,93947.98
2019-01-13T20:14:26.306Z,93981.85
2019-01-13T20:16:56.110Z,93967.84
2019-01-13T20:22:19.302Z,93963.27
2019-01-13T20:25:07.586Z,93962.77
2019-01-13T20:30:48.169Z,93944.08
2019-01-13T20:33:17.350Z,93923.88
2019-01-13T20:35:46.592Z,93929.62
2019-01-13T20:38:15.823Z,93930.17
2019-01-13T20:40:45.190Z,93936.83
2019-01-13T20:43:14.666Z,93913.23
2019-01-13T20:45:44.125Z,93914.37
2019-01-13T20:48:13.548Z,93907.45
2019-01-13T20:50:42.752Z,93886.69
2019-01-13T20:53:11.976Z,93891.55
2019-01-13T20:55:41.546Z,93885.11
2019-01-13T20:58:10.819Z,93871.20
2019-01-13T21:00:40.239Z,93888.39
2019-01-13T21:03:09.415Z,93895.17
2019-01-13T21:05:38.623Z,93893.52
2019-01-13T21:08:08.223Z,93889.06
2019-01-13T21:10:37.476Z,93892.91
2019-01-13T21:13:06.790Z,93882.17
2019-01-13T21:15:36.971Z,93888.59
2019-01-13T21:18:06.209Z,93890.72
2019-01-13T21:20:35.834Z,93889.20
2019-01-13T21:23:06.848Z,93885.34
2019-01-13T21:25:38.020Z,93879.70
2019-01-13T21:28:32.123Z,93888.92
2019-01-13T21:34:38.479Z,93881.44
2019-01-13T21:40:02.831Z,93880.09
2019-01-13T21:42:32.067Z,93864.64
2019-01-13T21:45:13.605Z,93855.50
2019-01-13T21:48:14.894Z,93880.77
2019-01-13T21:50:44.221Z,93868.13
2019-01-13T21:53:13.430Z,93884.70
2019-01-13T21:55:42.629Z,93892.20
2019-01-13T21:58:11.816Z,93884.38
2019-01-13T22:00:41.053Z,93889.16
2019-01-13T22:06:17.576Z,93895.65
2019-01-13T22:09:14.760Z,93868.06
2019-01-13T22:11:58.319Z,93866.67
2019-01-13T22:17:29.190Z,93846.20
2019-01-13T22:19:58.515Z,93863.44
2019-01-13T22:22:48.448Z,93861.01
2019-01-13T22:25:18.121Z,93866.06
2019-01-13T22:27:47.543Z,93867.00
2019-01-13T22:30:35.830Z,93857.31
2019-01-13T22:33:05.495Z,93859.88
2019-01-13T22:35:48.112Z,93872.79
2019-01-13T22:41:26.135Z,93898.66
2019-01-13T22:43:55.547Z,93884.73
2019-01-13T22:57:54.036Z,93939.91
2019-01-13T23:01:14.450Z,93906.15
2019-01-13T23:03:43.805Z,93909.42
2019-01-13T23:06:13.047Z,93897.66
2019-01-13T23:09:03.830Z,93879.90
2019-01-13T23:11:51.981Z,93935.55
2019-01-13T23:14:21.206Z,93929.94
2019-01-13T23:17:02.472Z,93929.11
2019-01-13T23:19:21.308Z,93939.86
2019-01-13T23:21:50.597Z,93920.12
2019-01-13T23:24:19.845Z,93927.83
2019-01-13T23:26:49.061Z,93943.95
2019-01-13T23:29:18.264Z,93932.15
2019-01-13T23:31:49.865Z,93914.19
2019-01-13T23:34:19.059Z,93919.11
2019-01-13T23:36:48.286Z,93923.88
2019-01-13T23:39:17.500Z,93931.73
2019-01-13T23:41:48.507Z,93943.75
2019-01-13T23:44:17.745Z,93961.48
2019-01-13T23:46:50.157Z,93957.66
2019-01-13T23:50:01.138Z,93961.62
2019-01-13T23:52:30.333Z,93950.05
2019-01-13T23:54:59.558Z,93940.13
2019-01-13T23:57:28.778Z,93946.55
2019-01-13T23:59:58.114Z,93943.63
